sensor_id;sensor_type;location;lat;lon;timestamp;P1;durP1;ratioP1;P2;durP2;ratioP2
46411;SDS011;32113;42.012;24.870;2024-01-25T00:01:38;13.10;;;7.38;;
46411;SDS011;32113;42.012;24.870;2024-01-25T00:04:04;14.68;;;7.75;;
46411;SDS011;32113;42.012;24.870;2024-01-25T00:06:29;10.70;;;6.95;;
46411;SDS011;32113;42.012;24.870;2024-01-25T00:08:54;11.82;;;6.93;;
46411;SDS011;32113;42.012;24.870;2024-01-25T00:11:20;12.82;;;6.05;;
46411;SDS011;32113;42.012;24.870;2024-01-25T00:13:45;7.80;;;4.43;;
46411;SDS011;32113;42.012;24.870;2024-01-25T00:16:11;5.38;;;2.90;;
46411;SDS011;32113;42.012;24.870;2024-01-25T00:18:36;5.43;;;3.08;;
46411;SDS011;32113;42.012;24.870;2024-01-25T00:21:02;4.70;;;2.53;;
46411;SDS011;32113;42.012;24.870;2024-01-25T00:23:27;5.13;;;2.80;;
46411;SDS011;32113;42.012;24.870;2024-01-25T00:25:53;4.97;;;2.55;;
46411;SDS011;32113;42.012;24.870;2024-01-25T00:28:18;5.15;;;2.72;;
46411;SDS011;32113;42.012;24.870;2024-01-25T00:30:44;5.53;;;2.80;;
46411;SDS011;32113;42.012;24.870;2024-01-25T00:33:09;5.97;;;3.95;;
46411;SDS011;32113;42.012;24.870;2024-01-25T00:35:35;5.75;;;3.70;;
46411;SDS011;32113;42.012;24.870;2024-01-25T00:38:01;10.70;;;4.30;;
46411;SDS011;32113;42.012;24.870;2024-01-25T00:40:27;10.80;;;4.97;;
46411;SDS011;32113;42.012;24.870;2024-01-25T00:42:52;9.13;;;4.68;;
46411;SDS011;32113;42.012;24.870;2024-01-25T00:45:19;6.28;;;3.78;;
46411;SDS011;32113;42.012;24.870;2024-01-25T00:47:45;5.95;;;4.10;;
46411;SDS011;32113;42.012;24.870;2024-01-25T00:50:11;8.93;;;4.30;;
46411;SDS011;32113;42.012;24.870;2024-01-25T00:52:37;7.07;;;3.83;;
46411;SDS011;32113;42.012;24.870;2024-01-25T00:55:03;8.13;;;4.50;;
46411;SDS011;32113;42.012;24.870;2024-01-25T00:57:29;9.10;;;5.68;;
46411;SDS011;32113;42.012;24.870;2024-01-25T00:59:55;11.60;;;6.75;;
46411;SDS011;32113;42.012;24.870;2024-01-25T01:02:21;11.38;;;6.32;;
46411;SDS011;32113;42.012;24.870;2024-01-25T01:04:47;13.82;;;8.65;;
46411;SDS011;32113;42.012;24.870;2024-01-25T01:07:13;13.82;;;7.95;;
46411;SDS011;32113;42.012;24.870;2024-01-25T01:09:39;12.13;;;7.63;;
46411;SDS011;32113;42.012;24.870;2024-01-25T01:12:06;12.32;;;7.20;;
46411;SDS011;32113;42.012;24.870;2024-01-25T01:14:31;15.55;;;7.13;;
46411;SDS011;32113;42.012;24.870;2024-01-25T01:16:57;12.10;;;6.70;;
46411;SDS011;32113;42.012;24.870;2024-01-25T01:19:22;11.50;;;7.05;;
46411;SDS011;32113;42.012;24.870;2024-01-25T01:21:48;13.32;;;7.13;;
46411;SDS011;32113;42.012;24.870;2024-01-25T01:24:13;13.07;;;6.68;;
46411;SDS011;32113;42.012;24.870;2024-01-25T01:26:39;11.77;;;6.43;;
46411;SDS011;32113;42.012;24.870;2024-01-25T01:29:06;18.63;;;7.25;;
46411;SDS011;32113;42.012;24.870;2024-01-25T01:31:33;11.65;;;6.05;;
46411;SDS011;32113;42.012;24.870;2024-01-25T01:33:58;9.82;;;5.45;;
46411;SDS011;32113;42.012;24.870;2024-01-25T01:36:24;6.70;;;4.50;;
46411;SDS011;32113;42.012;24.870;2024-01-25T01:38:49;8.95;;;4.38;;
46411;SDS011;32113;42.012;24.870;2024-01-25T01:41:15;7.03;;;4.13;;
46411;SDS011;32113;42.012;24.870;2024-01-25T01:43:40;5.85;;;3.65;;
46411;SDS011;32113;42.012;24.870;2024-01-25T01:46:10;6.97;;;4.20;;
46411;SDS011;32113;42.012;24.870;2024-01-25T01:48:40;6.20;;;3.45;;
46411;SDS011;32113;42.012;24.870;2024-01-25T01:51:06;6.30;;;3.55;;
46411;SDS011;32113;42.012;24.870;2024-01-25T01:53:32;8.15;;;4.20;;
46411;SDS011;32113;42.012;24.870;2024-01-25T01:55:59;7.30;;;4.35;;
46411;SDS011;32113;42.012;24.870;2024-01-25T01:58:24;11.35;;;5.60;;
46411;SDS011;32113;42.012;24.870;2024-01-25T02:00:52;11.57;;;5.90;;
46411;SDS011;32113;42.012;24.870;2024-01-25T02:03:19;10.50;;;6.13;;
46411;SDS011;32113;42.012;24.870;2024-01-25T02:05:44;15.30;;;6.38;;
46411;SDS011;32113;42.012;24.870;2024-01-25T02:08:10;11.70;;;7.05;;
46411;SDS011;32113;42.012;24.870;2024-01-25T02:10:35;12.45;;;6.90;;
46411;SDS011;32113;42.012;24.870;2024-01-25T02:13:01;15.68;;;7.60;;
46411;SDS011;32113;42.012;24.870;2024-01-25T02:15:26;15.18;;;7.82;;
46411;SDS011;32113;42.012;24.870;2024-01-25T02:17:52;13.40;;;8.52;;
46411;SDS011;32113;42.012;24.870;2024-01-25T02:20:18;15.50;;;8.27;;
46411;SDS011;32113;42.012;24.870;2024-01-25T02:22:44;15.65;;;8.15;;
46411;SDS011;32113;42.012;24.870;2024-01-25T02:25:09;18.02;;;8.00;;
46411;SDS011;32113;42.012;24.870;2024-01-25T02:27:34;12.48;;;7.70;;
46411;SDS011;32113;42.012;24.870;2024-01-25T02:30:04;11.80;;;6.90;;
46411;SDS011;32113;42.012;24.870;2024-01-25T02:32:32;11.07;;;6.65;;
46411;SDS011;32113;42.012;24.870;2024-01-25T02:34:58;8.65;;;4.47;;
46411;SDS011;32113;42.012;24.870;2024-01-25T02:37:24;4.75;;;2.08;;
46411;SDS011;32113;42.012;24.870;2024-01-25T02:39:50;4.38;;;0.80;;
46411;SDS011;32113;42.012;24.870;2024-01-25T02:42:16;1.05;;;0.50;;
46411;SDS011;32113;42.012;24.870;2024-01-25T02:44:42;1.00;;;0.60;;
46411;SDS011;32113;42.012;24.870;2024-01-25T02:47:08;1.63;;;0.60;;
46411;SDS011;32113;42.012;24.870;2024-01-25T02:49:34;3.25;;;0.60;;
46411;SDS011;32113;42.012;24.870;2024-01-25T02:51:59;1.10;;;0.60;;
46411;SDS011;32113;42.012;24.870;2024-01-25T02:54:25;2.03;;;0.80;;
46411;SDS011;32113;42.012;24.870;2024-01-25T02:56:50;0.80;;;0.40;;
46411;SDS011;32113;42.012;24.870;2024-01-25T02:59:16;1.00;;;0.60;;
46411;SDS011;32113;42.012;24.870;2024-01-25T03:01:42;1.65;;;0.60;;
46411;SDS011;32113;42.012;24.870;2024-01-25T03:04:08;1.52;;;0.52;;
46411;SDS011;32113;42.012;24.870;2024-01-25T03:06:34;1.27;;;0.50;;
46411;SDS011;32113;42.012;24.870;2024-01-25T03:08:59;1.08;;;0.47;;
46411;SDS011;32113;42.012;24.870;2024-01-25T03:11:25;1.38;;;0.63;;
46411;SDS011;32113;42.012;24.870;2024-01-25T03:13:50;1.05;;;0.52;;
46411;SDS011;32113;42.012;24.870;2024-01-25T03:16:16;2.65;;;0.68;;
46411;SDS011;32113;42.012;24.870;2024-01-25T03:18:41;2.28;;;0.45;;
46411;SDS011;32113;42.012;24.870;2024-01-25T03:21:07;0.77;;;0.50;;
46411;SDS011;32113;42.012;24.870;2024-01-25T03:23:32;1.30;;;0.50;;
46411;SDS011;32113;42.012;24.870;2024-01-25T03:25:58;3.00;;;0.70;;
46411;SDS011;32113;42.012;24.870;2024-01-25T03:28:23;3.08;;;0.60;;
46411;SDS011;32113;42.012;24.870;2024-01-25T03:30:49;1.65;;;0.60;;
46411;SDS011;32113;42.012;24.870;2024-01-25T03:33:14;4.55;;;0.70;;
46411;SDS011;32113;42.012;24.870;2024-01-25T03:35:40;1.60;;;0.90;;
46411;SDS011;32113;42.012;24.870;2024-01-25T03:38:05;1.98;;;0.80;;
46411;SDS011;32113;42.012;24.870;2024-01-25T03:40:31;1.38;;;0.80;;
46411;SDS011;32113;42.012;24.870;2024-01-25T03:42:57;1.15;;;0.60;;
46411;SDS011;32113;42.012;24.870;2024-01-25T03:45:22;1.85;;;1.00;;
46411;SDS011;32113;42.012;24.870;2024-01-25T03:47:48;1.40;;;0.60;;
46411;SDS011;32113;42.012;24.870;2024-01-25T03:50:13;1.67;;;0.85;;
46411;SDS011;32113;42.012;24.870;2024-01-25T03:52:38;3.67;;;0.98;;
46411;SDS011;32113;42.012;24.870;2024-01-25T03:55:04;2.17;;;0.70;;
46411;SDS011;32113;42.012;24.870;2024-01-25T03:57:30;2.10;;;0.98;;
46411;SDS011;32113;42.012;24.870;2024-01-25T03:59:55;2.60;;;0.70;;
46411;SDS011;32113;42.012;24.870;2024-01-25T04:02:21;2.40;;;0.82;;
46411;SDS011;32113;42.012;24.870;2024-01-25T04:04:46;3.67;;;0.80;;
46411;SDS011;32113;42.012;24.870;2024-01-25T04:07:12;2.25;;;0.88;;
46411;SDS011;32113;42.012;24.870;2024-01-25T04:09:37;2.63;;;1.40;;
46411;SDS011;32113;42.012;24.870;2024-01-25T04:12:03;1.98;;;1.10;;
46411;SDS011;32113;42.012;24.870;2024-01-25T04:14:29;1.75;;;0.95;;
46411;SDS011;32113;42.012;24.870;2024-01-25T04:16:54;1.45;;;0.80;;
46411;SDS011;32113;42.012;24.870;2024-01-25T04:19:20;2.25;;;0.90;;
46411;SDS011;32113;42.012;24.870;2024-01-25T04:21:45;1.40;;;1.00;;
46411;SDS011;32113;42.012;24.870;2024-01-25T04:24:11;4.55;;;1.30;;
46411;SDS011;32113;42.012;24.870;2024-01-25T04:26:36;4.93;;;1.58;;
46411;SDS011;32113;42.012;24.870;2024-01-25T04:29:02;2.13;;;1.25;;
46411;SDS011;32113;42.012;24.870;2024-01-25T04:31:27;4.05;;;1.67;;
46411;SDS011;32113;42.012;24.870;2024-01-25T04:33:53;3.13;;;1.80;;
46411;SDS011;32113;42.012;24.870;2024-01-25T04:36:18;3.60;;;2.00;;
46411;SDS011;32113;42.012;24.870;2024-01-25T04:38:43;3.92;;;1.75;;
46411;SDS011;32113;42.012;24.870;2024-01-25T04:41:09;3.03;;;1.52;;
46411;SDS011;32113;42.012;24.870;2024-01-25T04:43:35;3.53;;;1.30;;
46411;SDS011;32113;42.012;24.870;2024-01-25T04:46:03;6.10;;;0.95;;
46411;SDS011;32113;42.012;24.870;2024-01-25T04:48:29;5.32;;;1.10;;
46411;SDS011;32113;42.012;24.870;2024-01-25T04:50:56;2.47;;;0.90;;
46411;SDS011;32113;42.012;24.870;2024-01-25T04:53:23;1.38;;;0.80;;
46411;SDS011;32113;42.012;24.870;2024-01-25T04:55:48;1.73;;;0.73;;
46411;SDS011;32113;42.012;24.870;2024-01-25T04:58:14;2.15;;;0.80;;
46411;SDS011;32113;42.012;24.870;2024-01-25T05:00:39;3.67;;;1.15;;
46411;SDS011;32113;42.012;24.870;2024-01-25T05:03:05;5.85;;;1.70;;
46411;SDS011;32113;42.012;24.870;2024-01-25T05:05:30;4.60;;;1.63;;
46411;SDS011;32113;42.012;24.870;2024-01-25T05:07:56;5.68;;;1.90;;
46411;SDS011;32113;42.012;24.870;2024-01-25T05:10:21;3.63;;;1.67;;
46411;SDS011;32113;42.012;24.870;2024-01-25T05:12:48;2.35;;;1.40;;
46411;SDS011;32113;42.012;24.870;2024-01-25T05:15:13;3.70;;;1.88;;
46411;SDS011;32113;42.012;24.870;2024-01-25T05:17:39;4.20;;;1.80;;
46411;SDS011;32113;42.012;24.870;2024-01-25T05:20:04;3.33;;;1.70;;
46411;SDS011;32113;42.012;24.870;2024-01-25T05:22:31;3.53;;;1.52;;
46411;SDS011;32113;42.012;24.870;2024-01-25T05:24:56;5.35;;;1.67;;
46411;SDS011;32113;42.012;24.870;2024-01-25T05:27:22;4.00;;;1.13;;
46411;SDS011;32113;42.012;24.870;2024-01-25T05:29:48;2.95;;;1.40;;
46411;SDS011;32113;42.012;24.870;2024-01-25T05:32:14;2.00;;;1.10;;
46411;SDS011;32113;42.012;24.870;2024-01-25T05:34:39;2.35;;;0.90;;
46411;SDS011;32113;42.012;24.870;2024-01-25T05:37:05;1.92;;;0.93;;
46411;SDS011;32113;42.012;24.870;2024-01-25T05:39:30;2.03;;;0.70;;
46411;SDS011;32113;42.012;24.870;2024-01-25T05:41:55;2.33;;;0.82;;
46411;SDS011;32113;42.012;24.870;2024-01-25T05:44:21;2.75;;;0.90;;
46411;SDS011;32113;42.012;24.870;2024-01-25T05:46:46;6.45;;;2.15;;
46411;SDS011;32113;42.012;24.870;2024-01-25T05:49:12;11.48;;;4.10;;
46411;SDS011;32113;42.012;24.870;2024-01-25T05:51:37;10.57;;;3.05;;
46411;SDS011;32113;42.012;24.870;2024-01-25T05:54:03;3.67;;;1.65;;
46411;SDS011;32113;42.012;24.870;2024-01-25T05:56:28;6.88;;;1.73;;
46411;SDS011;32113;42.012;24.870;2024-01-25T05:58:54;3.28;;;1.80;;
46411;SDS011;32113;42.012;24.870;2024-01-25T06:01:19;3.92;;;2.45;;
46411;SDS011;32113;42.012;24.870;2024-01-25T06:03:44;4.15;;;2.13;;
46411;SDS011;32113;42.012;24.870;2024-01-25T06:06:10;4.45;;;1.60;;
46411;SDS011;32113;42.012;24.870;2024-01-25T06:08:36;3.58;;;1.50;;
46411;SDS011;32113;42.012;24.870;2024-01-25T06:11:01;2.75;;;1.52;;
46411;SDS011;32113;42.012;24.870;2024-01-25T06:13:27;3.67;;;1.48;;
46411;SDS011;32113;42.012;24.870;2024-01-25T06:15:52;5.78;;;1.58;;
46411;SDS011;32113;42.012;24.870;2024-01-25T06:18:17;4.20;;;1.70;;
46411;SDS011;32113;42.012;24.870;2024-01-25T06:20:43;2.90;;;1.70;;
46411;SDS011;32113;42.012;24.870;2024-01-25T06:23:09;2.33;;;1.55;;
46411;SDS011;32113;42.012;24.870;2024-01-25T06:25:34;6.43;;;1.60;;
46411;SDS011;32113;42.012;24.870;2024-01-25T06:28:01;2.03;;;0.93;;
46411;SDS011;32113;42.012;24.870;2024-01-25T06:30:27;3.70;;;1.20;;
46411;SDS011;32113;42.012;24.870;2024-01-25T06:32:52;2.70;;;1.27;;
46411;SDS011;32113;42.012;24.870;2024-01-25T06:35:18;9.63;;;1.40;;
46411;SDS011;32113;42.012;24.870;2024-01-25T06:37:43;3.08;;;1.10;;
46411;SDS011;32113;42.012;24.870;2024-01-25T06:40:09;2.33;;;0.93;;
46411;SDS011;32113;42.012;24.870;2024-01-25T06:42:34;3.42;;;1.00;;
46411;SDS011;32113;42.012;24.870;2024-01-25T06:45:00;3.92;;;1.70;;
46411;SDS011;32113;42.012;24.870;2024-01-25T06:47:25;4.88;;;2.25;;
46411;SDS011;32113;42.012;24.870;2024-01-25T06:49:50;4.80;;;1.40;;
46411;SDS011;32113;42.012;24.870;2024-01-25T06:52:19;4.20;;;1.63;;
46411;SDS011;32113;42.012;24.870;2024-01-25T06:54:45;6.20;;;1.77;;
46411;SDS011;32113;42.012;24.870;2024-01-25T06:57:10;5.25;;;1.75;;
46411;SDS011;32113;42.012;24.870;2024-01-25T06:59:36;5.68;;;1.30;;
46411;SDS011;32113;42.012;24.870;2024-01-25T07:02:01;4.78;;;1.48;;
46411;SDS011;32113;42.012;24.870;2024-01-25T07:04:28;3.42;;;1.30;;
46411;SDS011;32113;42.012;24.870;2024-01-25T07:06:54;4.05;;;1.30;;
46411;SDS011;32113;42.012;24.870;2024-01-25T07:09:19;4.53;;;1.60;;
46411;SDS011;32113;42.012;24.870;2024-01-25T07:11:45;2.63;;;1.27;;
46411;SDS011;32113;42.012;24.870;2024-01-25T07:14:10;7.75;;;1.88;;
46411;SDS011;32113;42.012;24.870;2024-01-25T07:16:36;6.65;;;1.50;;
46411;SDS011;32113;42.012;24.870;2024-01-25T07:19:01;9.38;;;2.15;;
46411;SDS011;32113;42.012;24.870;2024-01-25T07:21:27;5.10;;;1.48;;
46411;SDS011;32113;42.012;24.870;2024-01-25T07:23:52;3.28;;;1.30;;
46411;SDS011;32113;42.012;24.870;2024-01-25T07:26:18;5.57;;;1.75;;
46411;SDS011;32113;42.012;24.870;2024-01-25T07:28:43;6.35;;;2.40;;
46411;SDS011;32113;42.012;24.870;2024-01-25T07:31:09;10.13;;;3.40;;
46411;SDS011;32113;42.012;24.870;2024-01-25T07:33:35;4.72;;;1.45;;
46411;SDS011;32113;42.012;24.870;2024-01-25T07:36:02;7.00;;;1.90;;
46411;SDS011;32113;42.012;24.870;2024-01-25T07:38:27;4.60;;;1.75;;
46411;SDS011;32113;42.012;24.870;2024-01-25T07:40:53;5.50;;;1.95;;
46411;SDS011;32113;42.012;24.870;2024-01-25T07:43:18;5.53;;;2.47;;
46411;SDS011;32113;42.012;24.870;2024-01-25T07:45:44;10.70;;;2.60;;
46411;SDS011;32113;42.012;24.870;2024-01-25T07:48:09;6.57;;;2.33;;
46411;SDS011;32113;42.012;24.870;2024-01-25T07:50:35;8.90;;;1.95;;
46411;SDS011;32113;42.012;24.870;2024-01-25T07:53:00;12.50;;;2.13;;
46411;SDS011;32113;42.012;24.870;2024-01-25T07:55:27;5.77;;;2.57;;
46411;SDS011;32113;42.012;24.870;2024-01-25T07:57:54;4.75;;;1.75;;
46411;SDS011;32113;42.012;24.870;2024-01-25T08:00:20;6.28;;;1.77;;
46411;SDS011;32113;42.012;24.870;2024-01-25T08:02:45;10.45;;;1.88;;
46411;SDS011;32113;42.012;24.870;2024-01-25T08:05:11;6.85;;;1.67;;
46411;SDS011;32113;42.012;24.870;2024-01-25T08:07:36;8.07;;;2.15;;
46411;SDS011;32113;42.012;24.870;2024-01-25T08:10:02;7.03;;;2.03;;
46411;SDS011;32113;42.012;24.870;2024-01-25T08:12:30;4.68;;;1.92;;
46411;SDS011;32113;42.012;24.870;2024-01-25T08:14:56;6.55;;;2.20;;
46411;SDS011;32113;42.012;24.870;2024-01-25T08:17:21;4.07;;;1.58;;
46411;SDS011;32113;42.012;24.870;2024-01-25T08:19:46;6.57;;;1.60;;
46411;SDS011;32113;42.012;24.870;2024-01-25T08:22:12;5.55;;;1.55;;
46411;SDS011;32113;42.012;24.870;2024-01-25T08:24:40;6.50;;;1.60;;
46411;SDS011;32113;42.012;24.870;2024-01-25T08:27:06;6.13;;;1.60;;
46411;SDS011;32113;42.012;24.870;2024-01-25T08:29:32;6.85;;;1.63;;
46411;SDS011;32113;42.012;24.870;2024-01-25T08:31:58;6.63;;;2.10;;
46411;SDS011;32113;42.012;24.870;2024-01-25T08:34:23;6.22;;;1.75;;
46411;SDS011;32113;42.012;24.870;2024-01-25T08:36:49;8.10;;;3.03;;
46411;SDS011;32113;42.012;24.870;2024-01-25T08:39:14;8.05;;;2.83;;
46411;SDS011;32113;42.012;24.870;2024-01-25T08:41:41;6.55;;;2.33;;
46411;SDS011;32113;42.012;24.870;2024-01-25T08:44:07;5.80;;;2.47;;
46411;SDS011;32113;42.012;24.870;2024-01-25T08:46:33;7.18;;;3.20;;
46411;SDS011;32113;42.012;24.870;2024-01-25T08:48:58;8.02;;;2.30;;
46411;SDS011;32113;42.012;24.870;2024-01-25T08:51:23;5.97;;;2.13;;
46411;SDS011;32113;42.012;24.870;2024-01-25T08:53:49;5.78;;;1.70;;
46411;SDS011;32113;42.012;24.870;2024-01-25T08:56:16;33.78;;;3.97;;
46411;SDS011;32113;42.012;24.870;2024-01-25T08:58:41;5.90;;;1.80;;
46411;SDS011;32113;42.012;24.870;2024-01-25T09:01:07;9.88;;;1.50;;
46411;SDS011;32113;42.012;24.870;2024-01-25T09:03:32;5.40;;;1.98;;
46411;SDS011;32113;42.012;24.870;2024-01-25T09:05:58;8.48;;;1.95;;
46411;SDS011;32113;42.012;24.870;2024-01-25T09:08:29;8.07;;;2.08;;
46411;SDS011;32113;42.012;24.870;2024-01-25T09:10:54;5.50;;;2.38;;
46411;SDS011;32113;42.012;24.870;2024-01-25T09:13:20;8.27;;;2.13;;
46411;SDS011;32113;42.012;24.870;2024-01-25T09:15:45;7.55;;;2.45;;
46411;SDS011;32113;42.012;24.870;2024-01-25T09:18:11;9.95;;;2.10;;
46411;SDS011;32113;42.012;24.870;2024-01-25T09:20:37;7.53;;;1.83;;
46411;SDS011;32113;42.012;24.870;2024-01-25T09:23:02;7.90;;;2.20;;
46411;SDS011;32113;42.012;24.870;2024-01-25T09:25:28;5.50;;;2.30;;
46411;SDS011;32113;42.012;24.870;2024-01-25T09:27:54;8.23;;;2.05;;
46411;SDS011;32113;42.012;24.870;2024-01-25T09:30:19;8.23;;;2.28;;
46411;SDS011;32113;42.012;24.870;2024-01-25T09:32:44;9.75;;;2.78;;
46411;SDS011;32113;42.012;24.870;2024-01-25T09:35:10;7.75;;;2.25;;
46411;SDS011;32113;42.012;24.870;2024-01-25T09:37:35;11.45;;;2.50;;
46411;SDS011;32113;42.012;24.870;2024-01-25T09:40:01;6.50;;;2.40;;
46411;SDS011;32113;42.012;24.870;2024-01-25T09:42:29;7.78;;;2.45;;
46411;SDS011;32113;42.012;24.870;2024-01-25T09:44:55;7.47;;;2.55;;
46411;SDS011;32113;42.012;24.870;2024-01-25T09:47:20;7.63;;;2.67;;
46411;SDS011;32113;42.012;24.870;2024-01-25T09:49:46;6.80;;;2.58;;
46411;SDS011;32113;42.012;24.870;2024-01-25T09:52:12;9.30;;;2.80;;
46411;SDS011;32113;42.012;24.870;2024-01-25T09:54:38;7.30;;;2.17;;
46411;SDS011;32113;42.012;24.870;2024-01-25T09:57:06;10.73;;;2.13;;
46411;SDS011;32113;42.012;24.870;2024-01-25T09:59:37;11.05;;;2.60;;
46411;SDS011;32113;42.012;24.870;2024-01-25T10:02:02;13.15;;;2.30;;
46411;SDS011;32113;42.012;24.870;2024-01-25T10:04:29;9.95;;;2.58;;
46411;SDS011;32113;42.012;24.870;2024-01-25T10:06:55;10.27;;;2.80;;
46411;SDS011;32113;42.012;24.870;2024-01-25T10:09:21;6.78;;;2.15;;
46411;SDS011;32113;42.012;24.870;2024-01-25T10:11:47;8.30;;;3.22;;
46411;SDS011;32113;42.012;24.870;2024-01-25T10:14:13;9.30;;;2.72;;
46411;SDS011;32113;42.012;24.870;2024-01-25T10:16:39;8.10;;;2.63;;
46411;SDS011;32113;42.012;24.870;2024-01-25T10:19:06;13.82;;;3.17;;
46411;SDS011;32113;42.012;24.870;2024-01-25T10:21:32;19.20;;;3.13;;
46411;SDS011;32113;42.012;24.870;2024-01-25T10:24:00;7.75;;;3.17;;
46411;SDS011;32113;42.012;24.870;2024-01-25T10:26:26;9.38;;;3.08;;
46411;SDS011;32113;42.012;24.870;2024-01-25T10:28:53;11.80;;;2.85;;
46411;SDS011;32113;42.012;24.870;2024-01-25T10:31:19;10.50;;;3.20;;
46411;SDS011;32113;42.012;24.870;2024-01-25T10:33:47;10.20;;;2.75;;
46411;SDS011;32113;42.012;24.870;2024-01-25T10:36:13;8.45;;;3.10;;
46411;SDS011;32113;42.012;24.870;2024-01-25T10:38:39;15.40;;;3.78;;
46411;SDS011;32113;42.012;24.870;2024-01-25T10:41:07;9.93;;;3.03;;
46411;SDS011;32113;42.012;24.870;2024-01-25T10:43:33;11.65;;;3.53;;
46411;SDS011;32113;42.012;24.870;2024-01-25T10:45:59;13.38;;;4.20;;
46411;SDS011;32113;42.012;24.870;2024-01-25T10:48:25;11.43;;;3.58;;
46411;SDS011;32113;42.012;24.870;2024-01-25T10:50:52;8.90;;;3.13;;
46411;SDS011;32113;42.012;24.870;2024-01-25T10:53:18;10.03;;;3.03;;
46411;SDS011;32113;42.012;24.870;2024-01-25T10:55:45;10.95;;;3.40;;
46411;SDS011;32113;42.012;24.870;2024-01-25T10:58:12;10.05;;;2.85;;
46411;SDS011;32113;42.012;24.870;2024-01-25T11:00:39;6.68;;;2.63;;
46411;SDS011;32113;42.012;24.870;2024-01-25T11:03:05;7.43;;;2.55;;
46411;SDS011;32113;42.012;24.870;2024-01-25T11:05:31;7.32;;;2.65;;
46411;SDS011;32113;42.012;24.870;2024-01-25T11:07:57;8.10;;;3.15;;
46411;SDS011;32113;42.012;24.870;2024-01-25T11:10:26;9.70;;;2.85;;
46411;SDS011;32113;42.012;24.870;2024-01-25T11:12:57;11.63;;;3.28;;
46411;SDS011;32113;42.012;24.870;2024-01-25T11:15:34;7.38;;;2.72;;
46411;SDS011;32113;42.012;24.870;2024-01-25T11:18:01;8.60;;;3.40;;
46411;SDS011;32113;42.012;24.870;2024-01-25T11:20:29;12.20;;;3.25;;
46411;SDS011;32113;42.012;24.870;2024-01-25T11:25:36;9.68;;;3.85;;
46411;SDS011;32113;42.012;24.870;2024-01-25T11:28:03;8.48;;;3.30;;
46411;SDS011;32113;42.012;24.870;2024-01-25T11:30:33;11.13;;;4.43;;
46411;SDS011;32113;42.012;24.870;2024-01-25T11:32:59;8.10;;;3.60;;
46411;SDS011;32113;42.012;24.870;2024-01-25T11:35:25;13.25;;;4.05;;
46411;SDS011;32113;42.012;24.870;2024-01-25T11:37:52;14.48;;;3.38;;
46411;SDS011;32113;42.012;24.870;2024-01-25T11:40:17;10.27;;;3.15;;
46411;SDS011;32113;42.012;24.870;2024-01-25T11:42:44;12.48;;;5.22;;
46411;SDS011;32113;42.012;24.870;2024-01-25T11:45:12;12.65;;;4.05;;
46411;SDS011;32113;42.012;24.870;2024-01-25T11:47:39;12.52;;;3.38;;
46411;SDS011;32113;42.012;24.870;2024-01-25T11:50:06;6.32;;;3.03;;
46411;SDS011;32113;42.012;24.870;2024-01-25T11:52:33;10.18;;;3.28;;
46411;SDS011;32113;42.012;24.870;2024-01-25T11:55:09;7.15;;;3.10;;
46411;SDS011;32113;42.012;24.870;2024-01-25T12:00:04;11.07;;;3.13;;
46411;SDS011;32113;42.012;24.870;2024-01-25T12:02:31;9.18;;;2.78;;
46411;SDS011;32113;42.012;24.870;2024-01-25T12:04:57;7.70;;;3.00;;
46411;SDS011;32113;42.012;24.870;2024-01-25T12:07:23;6.22;;;2.67;;
46411;SDS011;32113;42.012;24.870;2024-01-25T12:12:24;8.02;;;3.00;;
46411;SDS011;32113;42.012;24.870;2024-01-25T12:14:49;13.57;;;3.33;;
46411;SDS011;32113;42.012;24.870;2024-01-25T12:17:17;10.35;;;3.67;;
46411;SDS011;32113;42.012;24.870;2024-01-25T12:19:42;8.95;;;3.70;;
46411;SDS011;32113;42.012;24.870;2024-01-25T12:22:08;14.00;;;4.05;;
46411;SDS011;32113;42.012;24.870;2024-01-25T12:24:33;14.25;;;3.58;;
46411;SDS011;32113;42.012;24.870;2024-01-25T12:27:00;11.52;;;3.90;;
46411;SDS011;32113;42.012;24.870;2024-01-25T12:29:25;12.85;;;3.78;;
46411;SDS011;32113;42.012;24.870;2024-01-25T12:31:51;10.32;;;3.35;;
46411;SDS011;32113;42.012;24.870;2024-01-25T12:34:16;9.80;;;3.03;;
46411;SDS011;32113;42.012;24.870;2024-01-25T12:36:42;12.70;;;3.42;;
46411;SDS011;32113;42.012;24.870;2024-01-25T12:39:07;10.30;;;3.33;;
46411;SDS011;32113;42.012;24.870;2024-01-25T12:41:33;11.55;;;3.15;;
46411;SDS011;32113;42.012;24.870;2024-01-25T12:44:00;10.90;;;3.72;;
46411;SDS011;32113;42.012;24.870;2024-01-25T12:46:25;15.75;;;4.28;;
46411;SDS011;32113;42.012;24.870;2024-01-25T12:48:51;8.27;;;3.20;;
46411;SDS011;32113;42.012;24.870;2024-01-25T12:51:20;6.03;;;2.97;;
46411;SDS011;32113;42.012;24.870;2024-01-25T12:53:47;10.88;;;3.67;;
46411;SDS011;32113;42.012;24.870;2024-01-25T12:56:14;7.20;;;2.88;;
46411;SDS011;32113;42.012;24.870;2024-01-25T12:58:39;11.23;;;3.85;;
46411;SDS011;32113;42.012;24.870;2024-01-25T13:01:05;10.52;;;3.67;;
46411;SDS011;32113;42.012;24.870;2024-01-25T13:03:30;11.15;;;3.75;;
46411;SDS011;32113;42.012;24.870;2024-01-25T13:05:56;12.50;;;4.30;;
46411;SDS011;32113;42.012;24.870;2024-01-25T13:08:21;13.18;;;2.88;;
46411;SDS011;32113;42.012;24.870;2024-01-25T13:10:47;6.97;;;2.90;;
46411;SDS011;32113;42.012;24.870;2024-01-25T13:13:12;9.38;;;2.72;;
46411;SDS011;32113;42.012;24.870;2024-01-25T13:15:37;7.03;;;2.50;;
46411;SDS011;32113;42.012;24.870;2024-01-25T13:18:03;9.15;;;3.00;;
46411;SDS011;32113;42.012;24.870;2024-01-25T13:20:29;5.95;;;2.50;;
46411;SDS011;32113;42.012;24.870;2024-01-25T13:22:54;6.65;;;2.65;;
46411;SDS011;32113;42.012;24.870;2024-01-25T13:25:19;6.63;;;2.60;;
46411;SDS011;32113;42.012;24.870;2024-01-25T13:27:45;8.90;;;2.70;;
46411;SDS011;32113;42.012;24.870;2024-01-25T13:30:10;9.02;;;4.32;;
46411;SDS011;32113;42.012;24.870;2024-01-25T13:32:37;9.25;;;3.45;;
46411;SDS011;32113;42.012;24.870;2024-01-25T13:35:02;8.25;;;2.78;;
46411;SDS011;32113;42.012;24.870;2024-01-25T13:37:29;9.43;;;3.03;;
46411;SDS011;32113;42.012;24.870;2024-01-25T13:39:54;7.78;;;2.60;;
46411;SDS011;32113;42.012;24.870;2024-01-25T13:42:20;8.98;;;2.45;;
46411;SDS011;32113;42.012;24.870;2024-01-25T13:44:46;9.73;;;3.42;;
46411;SDS011;32113;42.012;24.870;2024-01-25T13:47:11;7.68;;;3.05;;
46411;SDS011;32113;42.012;24.870;2024-01-25T13:49:36;7.40;;;2.90;;
46411;SDS011;32113;42.012;24.870;2024-01-25T13:52:02;8.27;;;2.83;;
46411;SDS011;32113;42.012;24.870;2024-01-25T13:54:28;11.00;;;3.47;;
46411;SDS011;32113;42.012;24.870;2024-01-25T13:56:54;8.50;;;3.42;;
46411;SDS011;32113;42.012;24.870;2024-01-25T13:59:20;8.68;;;2.90;;
46411;SDS011;32113;42.012;24.870;2024-01-25T14:01:46;9.82;;;3.63;;
46411;SDS011;32113;42.012;24.870;2024-01-25T14:04:11;11.07;;;2.75;;
46411;SDS011;32113;42.012;24.870;2024-01-25T14:06:37;7.35;;;2.40;;
46411;SDS011;32113;42.012;24.870;2024-01-25T14:09:02;13.57;;;4.43;;
46411;SDS011;32113;42.012;24.870;2024-01-25T14:11:28;11.50;;;3.33;;
46411;SDS011;32113;42.012;24.870;2024-01-25T14:13:54;8.27;;;3.55;;
46411;SDS011;32113;42.012;24.870;2024-01-25T14:16:19;7.35;;;2.97;;
46411;SDS011;32113;42.012;24.870;2024-01-25T14:18:45;9.90;;;3.28;;
46411;SDS011;32113;42.012;24.870;2024-01-25T14:21:10;6.10;;;3.30;;
46411;SDS011;32113;42.012;24.870;2024-01-25T14:23:36;11.60;;;4.05;;
46411;SDS011;32113;42.012;24.870;2024-01-25T14:26:01;11.85;;;3.90;;
46411;SDS011;32113;42.012;24.870;2024-01-25T14:28:28;11.85;;;4.07;;
46411;SDS011;32113;42.012;24.870;2024-01-25T14:30:53;10.95;;;3.55;;